• Join FlightAware (Why Join?)
  • Login
  • US Flag 
05:36PM EDT


 

Airport Tracker/Info


-or-


 

Live Flight TrackerFlight Track Log ✈ N9334H ✈ 14-Jul-2013 ✈ KOKV - KCGS

Flight Track Log - Related Links

Times and Time Zones

All times are in EDT time to prevent confusion due to time zone crossing. See the N9334H flight status page for this flight to view local times or setup timezone preferences in your user account.

Time Position Orientation Groundspeed Altitude Reporting Facility
EDT Latitude Longitude Course Direction KTS MPH feet Rate Location/Type
11:59AM 39.1333 -78.1000 360° North 113 130 3,500  Level Potomac TRACON
12:00PM 39.1667 -78.0833 21° North 112 129 3,900 420 Climbing Potomac TRACON
12:01PM 39.1833 -78.0667 38° Northeast 110 127 4,400 480 Climbing Potomac TRACON
12:02PM 39.2000 -78.0333 57° Northeast 108 124 4,900 240 Climbing Potomac TRACON
12:03PM 39.2167 -78.0000 57° Northeast 107 123 4,900  Level Potomac TRACON
12:04PM 39.1073 -77.7580 94° East  Level FlightAware Approximate
12:04PM 39.2333 -77.9833 38° Northeast 106 122 5,000  Level Potomac TRACON
12:05PM 39.2500 -77.9500 57° Northeast 107 123 5,100  Climbing Potomac TRACON
12:06PM 39.2667 -77.9167 57° Northeast 112 129 5,100 -60 Level Potomac TRACON
12:08PM 39.2464 -77.8451 110° East  Level Estimated
12:08PM 39.2833 -77.8333 110° East 112 129 5,000  Level Potomac TRACON
12:09PM 39.3000 -77.8000 57° Northeast 110 127 4,900 -60 Descending Potomac TRACON
12:10PM 39.3167 -77.7667 57° Northeast 111 128 4,900 60 Level Potomac TRACON
12:11PM 39.3333 -77.7500 38° Northeast 107 123 5,100 60 Climbing Potomac TRACON
12:12PM 39.3500 -77.7167 57° Northeast 103 119 5,100 -60 Level Potomac TRACON
12:13PM 39.3667 -77.6833 57° Northeast 106 122 5,000 -60 Descending Potomac TRACON
12:14PM 39.3833 -77.6667 38° Northeast 111 128 5,000  Level Potomac TRACON
12:15PM 39.4000 -77.6333 57° Northeast 111 128 5,000  Level Potomac TRACON
12:16PM 39.4167 -77.5833 67° East 105 121 5,000  Level Potomac TRACON
12:17PM 39.4167 -77.5500 90° East 102 117 5,000  Level Potomac TRACON
12:18PM 39.4333 -77.5167 57° Northeast 105 121 5,000  Level Potomac TRACON
12:19PM 39.4500 -77.4833 57° Northeast 103 119 5,000  Level Potomac TRACON
12:20PM 39.4500 -77.4500 90° East 90 104 5,100  Climbing Potomac TRACON
12:21PM 39.4500 -77.4167 90° East 95 109 5,000  Descending Potomac TRACON
12:22PM 39.4500 -77.3833 90° East 92 106 5,100  Climbing Potomac TRACON
12:23PM 39.4500 -77.3500 90° East 98 113 5,100 -60 Level Potomac TRACON
12:24PM 39.4500 -77.3167 90° East 98 113 5,000 -60 Descending Potomac TRACON
12:25PM 39.4333 -77.3000 142° Southeast 90 104 5,000  Level Potomac TRACON
12:26PM 39.4167 -77.2833 142° Southeast 90 104 5,100 -180 Climbing Potomac TRACON
12:27PM 39.4000 -77.2667 142° Southeast 92 106 4,700 -540 Descending Potomac TRACON
12:28PM 39.3667 -77.2500 159° South 91 105 4,100 -780 Descending Potomac TRACON
12:29PM 39.3500 -77.2333 142° Southeast 91 105 3,300 -600 Descending Potomac TRACON
12:30PM 39.3333 -77.2333 180° South 85 98 3,000 -180 Descending Potomac TRACON
12:31PM 39.3000 -77.2167 159° South 85 98 3,000  Level Potomac TRACON
12:32PM 39.2833 -77.2000 142° Southeast 90 104 3,100  Climbing Potomac TRACON
12:33PM 39.2667 -77.2000 180° South 92 106 3,000  Descending Potomac TRACON
12:34PM 39.2333 -77.1833 159° South 100 115 3,100  Climbing Potomac TRACON
12:35PM 39.2167 -77.1667 142° Southeast 92 106 3,000  Descending Potomac TRACON
12:36PM 39.2000 -77.1667 180° South 84 97 3,100  Climbing Potomac TRACON
12:37PM 39.1667 -77.1500 159° South 98 113 3,100 -300 Level Potomac TRACON
12:38PM 39.1500 -77.1333 142° Southeast 96 110 2,600 -480 Descending Potomac TRACON
12:39PM 39.1167 -77.1167 159° South 90 104 2,200 -300 Descending Potomac TRACON
12:40PM 39.1000 -77.1000 142° Southeast 87 100 2,100 -60 Descending Potomac TRACON
12:41PM 39.0833 -77.1000 180° South 95 109 2,100 -240 Level Potomac TRACON
12:42PM 39.0667 -77.0667 123° Southeast 94 108 1,700 -300 Descending Potomac TRACON
12:43PM 39.0500 -77.0500 142° Southeast 83 96 1,600  Descending Potomac TRACON
12:44PM 39.0333 -77.0167 123° Southeast 79 91 1,700 60 Climbing Potomac TRACON
12:45PM 39.0167 -77.0000 142° Southeast 79 91 1,800 -180 Climbing Potomac TRACON
12:46PM 39.0167 -76.9833 90° East 92 106 1,400 -480 Descending Potomac TRACON